Metar Cercanos

 

LEPA - Palma De Mallorc, Spain
Distance from station: ONO 38km
Actualización: 20/11/2018 18:00
Parcialmente nuboso
Parcialmente nuboso
 Viento del SO
Viento: SO 24 km/h
Temperatura: 17°C
Rocío: 14°C
Humedad: 83%
Barómetro: 1003 hPa
Clouds: Parcialmente nuboso
Visibility: 10 km
Cloud details: Few Clouds 549 m
Parcialmente nuboso 762 m
2018/11/20 17:00 LEPA 201700Z 23013KT 210V280 9999 FEW018 SCT025 17/14 Q1003 NOSIG
LEMH - Mahon/Menorca Is, Spain
Distance from station: ENE 105km
Actualización: 20/11/2018 18:00
Muy nuboso
Muy nuboso
 Viento del SO
Viento: SO 22 km/h
Temperatura: 16°C
Rocío: 12°C
Humedad: 77%
Barómetro: 1003 hPa
Clouds: Muy nuboso
Visibility: 10 km
Cloud details: Muy nuboso 610 m
2018/11/20 17:00 LEMH 201700Z 23012KT 190V260 9999 BKN020 16/12 Q1003
 
LEIB - Ibiza/Es Codola, Spain
Distance from station: OSO 165km
Actualización: 20/11/2018 18:00
Parcialmente nuboso
Parcialmente nuboso
 Viento del SO
Viento: SO 35 km/h
Temperatura: 17°C
Rocío: 13°C
Humedad: 77%
Barómetro: 1003 hPa
Clouds: Parcialmente nuboso
Visibility: 10 km
Cloud details: Few Clouds 518 m
Parcialmente nuboso 1372 m
2018/11/20 17:00 LEIB 201700Z 22019KT 9999 FEW017 SCT045 17/13 Q1003 NOSIG
LEBL - Barcelona Airpor, Spain
Distance from station: NNO 225km
Actualización: 20/11/2018 18:00
Few Clouds
Few Clouds
 Viento del NNO
Viento: NNO 6 km/h
Temperatura: 13°C
Rocío: 11°C
Humedad: 88%
Barómetro: 1000 hPa
Clouds: Few Clouds
Visibility: 10 km
Cloud details: Few Clouds 762 m
2018/11/20 17:00 LEBL 201700Z 33003KT 280V020 9999 FEW025 13/11 Q1000 NOSIG
 
LEVC - Valencia (civ/Mi, Spain
Distance from station: NO 188km
Actualización: 20/11/2018 18:00
Lluvia débil, Muy nuboso
Lluvia débil, Muy nuboso
 Viento del SO
Viento: SO 15 km/h
Temperatura: 13°C
Rocío: 11°C
Humedad: 88%
Barómetro: 1002 hPa
Resumen: Lluvia débil
Clouds: Muy nuboso
Visibility: 10 km
Cloud details: Few Clouds 610 m
Muy nuboso 1524 m
2018/11/20 17:00 LEVC 201700Z 23008KT 190V250 9999 -RA FEW020 BKN050 13/11 Q1002 NOSIG
LEGE - Gerona/Costa Bra, Spain
Distance from station: N 276km
Actualización: 20/11/2018 18:00
Parcialmente nuboso
Parcialmente nuboso
 Viento del varies
Viento: varies 2 km/h
Temperatura: 12°C
Rocío: 11°C
Humedad: 94%
Barómetro: 1001 hPa
Clouds: Parcialmente nuboso
Visibility: 8 km
Cloud details: Few Clouds 457 m
Parcialmente nuboso 914 m
2018/11/20 17:00 LEGE 201700Z VRB01KT 8000 FEW015 SCT030 12/11 Q1001
 
LEAL - Alicante/El Alte, Spain
Distance from station: OSO 344km
Actualización: 20/11/2018 18:00
Parcialmente nuboso
Parcialmente nuboso
 Viento del SO
Viento: SO 9 km/h
Temperatura: 16°C
Rocío: 11°C
Humedad: 72%
Barómetro: 1003 hPa
Clouds: Parcialmente nuboso
Visibility: 10 km
Cloud details: Few Clouds 762 m
Parcialmente nuboso 1920 m
2018/11/20 17:00 LEAL 201700Z 23005KT 190V270 9999 FEW025 SCT063 16/11 Q1003 NOSIG
LEAM - Almeria Airport, Spain
Distance from station: SSO 56km
Actualización: 20/11/2018 18:00
Few Clouds
Few Clouds
 Viento del OSO
Viento: OSO 24 km/h
Temperatura: 17°C
Rocío: 11°C
Humedad: 68%
Barómetro: 1005 hPa
Clouds: Few Clouds
Visibility: 10 km
Cloud details: Few Clouds 1524 m
2018/11/20 17:00 LEAM 201700Z 24013KT 210V270 9999 FEW050 17/11 Q1005
 
LEZG - Zaragoza (mil/Ci, Spain
Distance from station: NO 431km
Actualización: 20/11/2018 18:00
Parcialmente nuboso
Parcialmente nuboso
 Viento del E
Viento: E 6 km/h
Temperatura: 9°C
Rocío: 8°C
Humedad: 94%
Barómetro: 1000 hPa
Clouds: Parcialmente nuboso
Visibility: 10 km
Cloud details: Parcialmente nuboso 1981 m
2018/11/20 17:00 LEZG 201700Z 08003KT 050V110 9999 SCT065 09/08 Q1000
LEMD - Madrid/Barajas, Spain
Distance from station: ONO 234km
Actualización: 20/11/2018 18:00
Nearby showers, Parcialmente nuboso
Nearby showers, Parcialmente nuboso
 Viento del OSO
Viento: OSO 24 km/h
Temperatura: 10°C
Sensación frio: 7°C
Rocío: 7°C
Humedad: 82%
Barómetro: 1002 hPa
Resumen: Nearby Showers
Clouds: Parcialmente nuboso
Visibility: 10 km
Cloud details: Few Clouds 610 m
Parcialmente nuboso 1524 m
2018/11/20 17:00 LEMD 201700Z 24013KT 9999 VCSH FEW020TCU SCT050 10/07 Q1002 R88/29//95 NOSIG
 
LEGR - Granada Airport, Spain
Distance from station: OSO 62km
Actualización: 20/11/2018 18:00
Muy nuboso
Muy nuboso
 Viento del O
Viento: O 6 km/h
Temperatura: 11°C
Rocío: 7°C
Humedad: 77%
Barómetro: 1009 hPa
Clouds: Muy nuboso
Visibility: 10 km
Cloud details: Few Clouds 1067 m
Muy nuboso 1829 m
2018/11/20 17:00 LEGR 201700Z 26003KT 200V290 9999 FEW035 BKN060 11/07 Q1009
LEMG - Malaga (civ/Mil), Spain
Distance from station: OSO 227km
Actualización: 20/11/2018 18:00
Muy nuboso
Muy nuboso
 Viento del calm
Viento: Calma
Temperatura: 17°C
Rocío: 9°C
Humedad: 59%
Barómetro: 1009 hPa
Clouds: Muy nuboso
Visibility: 10 km
Cloud details: Few Clouds 914 m
Muy nuboso 1981 m
2018/11/20 17:00 LEMG 201700Z 00000KT 9999 FEW030 BKN065 17/09 Q1009 NOSIG
 
LEZL - Sevilla (civ/Mil, Spain
Distance from station: S 318km
Actualización: 20/11/2018 18:00
Few Clouds
Few Clouds
 Viento del OSO
Viento: OSO 20 km/h
Temperatura: 15°C
Rocío: 12°C
Humedad: 82%
Barómetro: 1008 hPa
Clouds: Few Clouds
Visibility: 10 km
Cloud details: Few Clouds 1219 m
2018/11/20 17:00 LEZL 201700Z 25011KT 9999 FEW040 15/12 Q1008 NOSIG
LEVT - Vitoria, Spain
Distance from station: NO 226km
Actualización: 20/11/2018 18:00
Muy nuboso
Muy nuboso
 Viento del varies
Viento: varies 4 km/h
Temperatura: 3°C
Rocío: 2°C
Humedad: 93%
Barómetro: 1002 hPa
Clouds: Muy nuboso
Visibility: 10 km
Cloud details: Few Clouds 305 m
Muy nuboso 853 m
2018/11/20 17:00 LEVT 201700Z VRB02KT 9999 FEW010 BKN028 03/02 Q1002
 
LEBB - Bilbao/Sondica, Spain
Distance from station: NNO 235km
Actualización: 20/11/2018 18:00
Muy nuboso
Muy nuboso
 Viento del ESE
Viento: ESE 9 km/h
Temperatura: 7°C
Sensación frio: 6°C
Rocío: 5°C
Humedad: 87%
Barómetro: 1003 hPa
Clouds: Muy nuboso
Visibility: 10 km
Cloud details: Muy nuboso 610 m
Muy nuboso 1372 m
2018/11/20 17:00 LEBB 201700Z 12005KT 090V160 9999 BKN020 BKN045 07/05 Q1003 NOSIG
LESO - San Sebastian/Fu, Spain
Distance from station: N 231km
Actualización: 20/11/2018 18:00
Muy nuboso
Muy nuboso
 Viento del ESE
Viento: ESE 9 km/h
Temperatura: 6°C
Sensación frio: 4°C
Rocío: 4°C
Humedad: 87%
Barómetro: 1004 hPa
Clouds: Muy nuboso
Visibility: 10 km
Cloud details: Few Clouds 610 m
Parcialmente nuboso 1676 m
Muy nuboso 1981 m
2018/11/20 17:00 LESO 201700Z 11005KT 070V140 9999 FEW020 SCT055 BKN065 06/04 Q1004
 
LEVD - Valladolid(Mil/C, Spain
Distance from station: ONO 239km
Actualización: 20/11/2018 18:00
Parcialmente nuboso
Parcialmente nuboso
 Viento del OSO
Viento: OSO 20 km/h
Temperatura: 7°C
Sensación frio: 4°C
Rocío: 5°C
Humedad: 87%
Barómetro: 1000 hPa
Clouds: Parcialmente nuboso
Visibility: 10 km
Cloud details: Few Clouds 427 m
Parcialmente nuboso 610 m
2018/11/20 17:00 LEVD 201700Z 24011KT 9999 FEW014 SCT020 07/05 Q1000
LESA - Salamanca (civ/M, Spain
Distance from station: ONO 349km
Actualización: 20/11/2018 18:00
Muy nuboso
Muy nuboso
 Viento del O
Viento: O 19 km/h
Temperatura: 7°C
Sensación frio: 4°C
Rocío: 6°C
Humedad: 93%
Barómetro: 1001 hPa
Clouds: Muy nuboso
Visibility: 10 km
Cloud details: Few Clouds 823 m
Muy nuboso 1402 m
2018/11/20 17:00 LESA 201700Z 26010KT 9999 FEW027 BKN046 07/06 Q1001
 
LEXJ - Santander/Paraya, Spain
Distance from station: NNO 247km
Actualización: 20/11/2018 18:00
Parcialmente nuboso
Parcialmente nuboso
 Viento del E
Viento: E 7 km/h
Temperatura: 9°C
Sensación frio: 8°C
Rocío: 4°C
Humedad: 71%
Barómetro: 1002 hPa
Clouds: Parcialmente nuboso
Visibility: 10 km
Cloud details: Few Clouds 1067 m
Parcialmente nuboso 1829 m
2018/11/20 17:00 LEXJ 201700Z 09004KT 9999 FEW035 SCT060 09/04 Q1002
LEAS - Asturias/Aviles, Spain
Distance from station: NO 214km
Actualización: 20/11/2018 18:00
Muy nuboso
Muy nuboso
 Viento del calm
Viento: Calma
Temperatura: 9°C
Rocío: 7°C
Humedad: 87%
Barómetro: 1002 hPa
Clouds: Muy nuboso
Visibility: 10 km
Cloud details: Few Clouds 610 m
Muy nuboso 1676 m
Muy nuboso 2438 m
2018/11/20 17:00 LEAS 201700Z 00000KT 9999 FEW020 BKN055 BKN080 09/07 Q1002 NOSIG
 
LECO - La Coruna/Alvedr, Spain
Distance from station: ONO 222km
Actualización: 20/11/2018 18:00
Few Clouds
Few Clouds
 Viento del varies
Viento: varies 4 km/h
Temperatura: 9°C
Rocío: 7°C
Humedad: 87%
Barómetro: 1002 hPa
Clouds: Few Clouds
Visibility: 10 km
Cloud details: Few Clouds 914 m
2018/11/20 17:00 LECO 201700Z VRB02KT 9999 FEW030 09/07 Q1002 NOSIG
LEVX - Vigo/Peinador, Spain
Distance from station: O 214km
Actualización: 20/11/2018 18:00
Muy nuboso
Muy nuboso
 Viento del NNO
Viento: NNO 7 km/h
Temperatura: 11°C
Rocío: 8°C
Humedad: 82%
Barómetro: 1001 hPa
Clouds: Muy nuboso
Visibility: 10 km
Cloud details: Few Clouds 244 m
Muy nuboso 610 m
2018/11/20 17:00 LEVX 201700Z 34004KT 280V040 9999 FEW008 BKN020 11/08 Q1001 NOSIG